createdAt,value
2019-01-15T00:02:26.751Z,4.40
2019-01-15T00:04:56.101Z,4.40
2019-01-15T00:07:28.127Z,4.40
2019-01-15T00:13:35.019Z,4.50
2019-01-15T00:20:03.512Z,4.50
2019-01-15T00:22:34.289Z,4.40
2019-01-15T00:25:07.894Z,4.50
2019-01-15T00:27:37.848Z,4.40
2019-01-15T00:30:09.149Z,4.40
2019-01-15T00:32:43.448Z,4.50
2019-01-15T00:35:34.216Z,4.50
2019-01-15T00:38:12.423Z,4.60
2019-01-15T00:41:15.365Z,4.70
2019-01-15T00:46:51.438Z,4.70
2019-01-15T00:49:33.982Z,4.60
2019-01-15T00:56:04.974Z,4.60
2019-01-15T01:06:15.963Z,4.60
2019-01-15T01:09:14.498Z,4.60
2019-01-15T01:30:12.836Z,4.50
2019-01-15T01:33:41.297Z,4.50
2019-01-15T01:40:37.247Z,4.40
2019-01-15T01:58:52.615Z,4.20
2019-01-15T02:05:30.178Z,4.00
2019-01-15T02:09:15.771Z,4.00
2019-01-15T02:35:15.340Z,4.40
2019-01-15T02:38:50.847Z,4.20
2019-01-15T02:47:12.912Z,4.20
2019-01-15T02:49:31.096Z,4.10
2019-01-15T03:09:53.632Z,3.90
2019-01-15T03:12:29.608Z,3.90
2019-01-15T03:15:19.906Z,4.00
2019-01-15T03:17:49.701Z,4.00
2019-01-15T03:20:24.735Z,4.10
2019-01-15T03:22:55.234Z,4.10
2019-01-15T03:25:47.150Z,4.10
2019-01-15T03:28:49.556Z,4.10
2019-01-15T03:31:59.886Z,4.10
2019-01-15T03:34:54.373Z,4.10
2019-01-15T03:37:51.993Z,4.20
2019-01-15T03:43:49.107Z,4.10
2019-01-15T03:53:44.048Z,4.10
2019-01-15T04:04:22.750Z,4.00
2019-01-15T04:06:58.277Z,4.10
2019-01-15T04:09:28.059Z,4.00
2019-01-15T04:19:11.991Z,4.10
2019-01-15T04:22:16.885Z,3.90
2019-01-15T04:47:25.139Z,3.50
2019-01-15T04:50:09.305Z,3.50
2019-01-15T04:52:40.217Z,3.50
2019-01-15T04:55:10.314Z,3.50
2019-01-15T04:57:43.128Z,3.60
2019-01-15T05:00:18.580Z,3.50
2019-01-15T05:03:56.438Z,3.50
2019-01-15T05:06:26.145Z,3.60
2019-01-15T05:09:00.467Z,3.60
2019-01-15T05:12:11.321Z,3.60
2019-01-15T05:20:59.998Z,3.50
2019-01-15T05:23:35.844Z,3.60
2019-01-15T05:26:06.722Z,3.70
2019-01-15T05:28:58.571Z,3.70
2019-01-15T05:31:28.737Z,3.60
2019-01-15T05:34:01.521Z,3.60
2019-01-15T05:36:31.213Z,3.60
2019-01-15T05:39:01.133Z,3.60
2019-01-15T05:41:31.082Z,3.60
2019-01-15T05:44:00.735Z,3.60
2019-01-15T05:46:30.436Z,3.60
2019-01-15T05:49:00.059Z,3.60
2019-01-15T05:51:40.969Z,3.60
2019-01-15T05:54:10.107Z,3.60
2019-01-15T05:56:39.241Z,3.70
2019-01-15T05:59:08.860Z,3.60
2019-01-15T06:01:38.603Z,3.60
2019-01-15T06:04:10.532Z,3.60
2019-01-15T06:06:39.931Z,3.60
2019-01-15T06:09:10.987Z,3.60
2019-01-15T06:11:40.400Z,3.70
2019-01-15T06:14:09.801Z,3.60
2019-01-15T06:16:39.187Z,3.60
2019-01-15T06:19:08.313Z,3.60
2019-01-15T06:21:37.460Z,3.60
2019-01-15T06:24:06.584Z,3.60
2019-01-15T06:26:35.691Z,3.60
2019-01-15T06:29:05.610Z,3.70
2019-01-15T06:31:35.054Z,3.60
2019-01-15T06:34:04.188Z,3.40
2019-01-15T06:36:33.365Z,3.40
2019-01-15T06:39:02.641Z,3.30
2019-01-15T06:41:31.791Z,3.30
2019-01-15T06:44:00.934Z,3.30
2019-01-15T06:46:30.081Z,3.30
2019-01-15T06:48:59.204Z,3.40
2019-01-15T06:51:28.765Z,3.30
2019-01-15T06:53:58.133Z,3.40
2019-01-15T06:56:27.833Z,3.20
2019-01-15T06:58:57.335Z,3.20
2019-01-15T07:01:26.567Z,3.20
2019-01-15T07:03:55.682Z,3.20
2019-01-15T07:06:24.819Z,3.20
2019-01-15T07:08:57.143Z,3.30
2019-01-15T07:11:26.332Z,3.40
2019-01-15T07:13:57.179Z,3.40
2019-01-15T07:16:27.257Z,3.50
2019-01-15T07:18:56.362Z,3.50
2019-01-15T07:21:26.050Z,3.50
2019-01-15T07:23:56.211Z,3.50
2019-01-15T07:26:26.011Z,3.40
2019-01-15T07:28:55.570Z,3.40
2019-01-15T07:31:25.134Z,3.30
2019-01-15T07:33:54.319Z,3.30
2019-01-15T07:36:24.664Z,3.30
2019-01-15T07:38:53.876Z,3.30
2019-01-15T07:41:23.019Z,3.30
2019-01-15T07:43:52.140Z,3.40
2019-01-15T07:46:21.534Z,3.50
2019-01-15T07:48:50.819Z,3.50
2019-01-15T07:51:19.933Z,3.40
2019-01-15T07:53:49.031Z,3.50
2019-01-15T07:56:18.941Z,3.50
2019-01-15T07:58:48.113Z,3.40
2019-01-15T08:01:18.942Z,3.50
2019-01-15T08:03:48.136Z,3.50
2019-01-15T08:06:17.283Z,3.50
2019-01-15T08:08:46.746Z,3.60
2019-01-15T08:11:15.874Z,3.50
2019-01-15T08:13:44.986Z,3.60
2019-01-15T08:16:14.104Z,3.60
2019-01-15T08:18:43.207Z,3.60
2019-01-15T08:21:12.620Z,3.50
2019-01-15T08:23:42.031Z,3.50
2019-01-15T08:26:11.426Z,3.50
2019-01-15T08:28:40.540Z,3.60
2019-01-15T08:31:09.661Z,3.60
2019-01-15T08:33:38.794Z,3.50
2019-01-15T08:36:08.239Z,3.50
2019-01-15T08:38:37.571Z,3.60
2019-01-15T08:41:06.961Z,3.70
2019-01-15T08:43:36.240Z,3.80
2019-01-15T08:46:05.448Z,3.90
2019-01-15T08:48:35.911Z,3.90
2019-01-15T08:51:05.948Z,4.10
2019-01-15T08:53:35.319Z,4.20
2019-01-15T08:56:04.811Z,4.20
2019-01-15T08:58:33.913Z,4.30
2019-01-15T09:01:03.107Z,4.30
2019-01-15T09:03:32.202Z,4.20
2019-01-15T09:06:01.344Z,4.20
2019-01-15T09:08:30.447Z,4.20
2019-01-15T09:10:59.892Z,4.30
2019-01-15T09:13:29.072Z,4.40
2019-01-15T09:15:58.202Z,4.30
2019-01-15T09:18:28.833Z,4.30
2019-01-15T09:20:58.351Z,4.30
2019-01-15T09:23:27.460Z,4.50
2019-01-15T09:25:56.609Z,4.50
2019-01-15T09:28:25.747Z,4.70
2019-01-15T09:30:54.875Z,4.70
2019-01-15T09:33:24.531Z,4.70
2019-01-15T09:35:53.722Z,4.70
2019-01-15T09:38:22.845Z,4.60
2019-01-15T09:40:52.067Z,4.60
2019-01-15T09:43:21.176Z,4.60
2019-01-15T09:45:50.324Z,4.50
2019-01-15T09:48:24.820Z,4.50
2019-01-15T09:50:54.006Z,4.60
2019-01-15T09:53:23.116Z,4.60
2019-01-15T09:55:52.239Z,4.70
2019-01-15T09:58:21.333Z,4.80
2019-01-15T10:00:50.470Z,4.70
2019-01-15T10:03:19.640Z,4.80
2019-01-15T10:05:48.755Z,4.80
2019-01-15T10:08:17.882Z,4.90
2019-01-15T10:10:47.168Z,4.90
2019-01-15T10:13:16.420Z,4.80
2019-01-15T10:15:45.572Z,4.80
2019-01-15T10:18:14.880Z,4.90
2019-01-15T10:20:43.999Z,4.80
2019-01-15T10:23:13.175Z,4.70
2019-01-15T10:25:42.696Z,4.80
2019-01-15T10:28:12.218Z,4.80
2019-01-15T10:31:19.915Z,4.70
2019-01-15T10:33:53.940Z,4.70
2019-01-15T10:36:21.588Z,4.70
2019-01-15T10:38:50.697Z,4.70
2019-01-15T10:41:19.903Z,4.90
2019-01-15T10:43:49.271Z,5.00
2019-01-15T10:46:21.377Z,5.10
2019-01-15T10:48:49.505Z,5.10
2019-01-15T10:51:18.624Z,5.20
2019-01-15T10:53:47.756Z,5.30
2019-01-15T10:56:17.146Z,5.50
2019-01-15T10:58:46.297Z,5.50
2019-01-15T11:01:15.470Z,5.60
2019-01-15T11:03:45.262Z,5.50
2019-01-15T11:06:14.385Z,5.50
2019-01-15T11:08:43.581Z,5.60
2019-01-15T11:11:12.703Z,5.60
2019-01-15T11:13:41.837Z,5.60
2019-01-15T11:16:10.951Z,5.50
2019-01-15T11:18:40.348Z,5.50
2019-01-15T11:21:09.754Z,5.50
2019-01-15T11:23:39.016Z,5.50
2019-01-15T11:26:08.458Z,5.60
2019-01-15T11:28:37.863Z,5.60
2019-01-15T11:31:07.320Z,5.60
2019-01-15T11:33:36.790Z,5.70
2019-01-15T11:36:05.924Z,5.70
2019-01-15T11:38:35.335Z,5.60
2019-01-15T11:41:04.756Z,5.60
2019-01-15T11:43:34.164Z,5.70
2019-01-15T11:46:03.334Z,5.80
2019-01-15T11:48:32.455Z,5.90
2019-01-15T11:51:01.597Z,5.90
2019-01-15T11:53:31.440Z,5.90
2019-01-15T11:56:00.636Z,5.90
2019-01-15T11:58:29.776Z,6.00
2019-01-15T12:01:20.751Z,6.00
2019-01-15T12:04:07.612Z,6.00
2019-01-15T12:06:54.410Z,6.10
2019-01-15T12:10:00.717Z,6.10
2019-01-15T12:12:47.190Z,6.10
2019-01-15T12:15:33.700Z,6.10
2019-01-15T12:18:27.664Z,6.20
2019-01-15T12:21:24.916Z,6.20
2019-01-15T12:24:22.350Z,6.30
2019-01-15T12:27:19.371Z,6.40
2019-01-15T12:29:57.637Z,6.40
2019-01-15T12:32:55.001Z,6.30
2019-01-15T12:35:38.127Z,6.40
2019-01-15T12:38:25.353Z,6.30
2019-01-15T12:41:13.532Z,6.30
2019-01-15T12:43:58.425Z,6.30
2019-01-15T12:46:58.749Z,6.40
2019-01-15T12:50:04.944Z,6.40
2019-01-15T12:52:52.164Z,6.40
2019-01-15T12:55:38.683Z,6.50
2019-01-15T12:58:20.058Z,6.50
2019-01-15T13:01:08.213Z,6.60
2019-01-15T13:03:48.909Z,6.60
2019-01-15T13:06:35.966Z,6.70
2019-01-15T13:09:16.540Z,6.60
2019-01-15T13:12:12.364Z,6.60
2019-01-15T13:15:03.501Z,6.70
2019-01-15T13:18:04.167Z,6.70
2019-01-15T13:20:49.539Z,6.60
2019-01-15T13:23:37.468Z,6.60
2019-01-15T13:26:24.500Z,6.70
2019-01-15T13:29:18.221Z,6.60
2019-01-15T13:32:02.591Z,6.70
2019-01-15T13:35:00.257Z,6.70
2019-01-15T13:37:42.664Z,6.60
2019-01-15T13:40:31.136Z,6.60
2019-01-15T13:43:24.976Z,6.60
2019-01-15T13:46:17.539Z,6.60
2019-01-15T13:49:14.788Z,6.60
2019-01-15T13:51:56.162Z,6.60
2019-01-15T13:54:43.377Z,6.60
2019-01-15T13:57:24.019Z,6.70
2019-01-15T14:00:20.060Z,6.70
2019-01-15T14:03:12.302Z,6.70
2019-01-15T14:06:04.561Z,6.60
2019-01-15T14:08:55.644Z,6.70
2019-01-15T14:11:36.428Z,6.70
2019-01-15T14:14:23.312Z,6.60
2019-01-15T14:17:14.669Z,6.60
2019-01-15T14:20:00.665Z,6.60
2019-01-15T14:22:47.475Z,6.60
2019-01-15T14:25:34.405Z,6.60
2019-01-15T14:28:32.006Z,6.60
2019-01-15T14:31:23.139Z,6.50
2019-01-15T14:34:11.092Z,6.50
2019-01-15T14:36:59.101Z,6.50
2019-01-15T14:39:50.795Z,6.50
2019-01-15T14:42:37.333Z,6.50
2019-01-15T14:45:26.443Z,6.50
2019-01-15T14:48:21.608Z,6.60
2019-01-15T14:51:05.870Z,6.60
2019-01-15T14:53:44.696Z,6.60
2019-01-15T14:56:32.602Z,6.60
2019-01-15T14:59:21.508Z,6.60
2019-01-15T15:02:25.743Z,6.60
2019-01-15T15:05:12.688Z,6.60
2019-01-15T15:08:02.588Z,6.60
2019-01-15T15:11:01.564Z,6.60
2019-01-15T15:13:51.897Z,6.60
2019-01-15T15:16:31.591Z,6.60
2019-01-15T15:19:28.953Z,6.60
2019-01-15T15:22:15.622Z,6.60
2019-01-15T15:25:02.438Z,6.50
2019-01-15T15:27:57.652Z,6.50
2019-01-15T15:30:51.895Z,6.50
2019-01-15T15:33:38.668Z,6.50
2019-01-15T15:36:35.443Z,6.50
2019-01-15T15:39:29.135Z,6.50
2019-01-15T15:42:16.209Z,6.50
2019-01-15T15:45:03.504Z,6.60
2019-01-15T15:48:04.225Z,6.60
2019-01-15T15:50:55.692Z,6.50
2019-01-15T15:53:44.514Z,6.50
2019-01-15T15:56:26.409Z,6.60
2019-01-15T15:59:12.961Z,6.60
2019-01-15T16:02:00.201Z,6.60
2019-01-15T16:04:48.018Z,6.50
2019-01-15T16:07:43.025Z,6.50
2019-01-15T16:10:34.762Z,6.50
2019-01-15T16:13:38.130Z,6.50
2019-01-15T16:16:24.942Z,6.50
2019-01-15T16:19:09.845Z,6.50
2019-01-15T16:22:01.125Z,6.40
2019-01-15T16:24:46.779Z,6.50
2019-01-15T16:27:38.275Z,6.50
2019-01-15T16:30:33.270Z,6.50
2019-01-15T16:33:19.887Z,6.50
2019-01-15T16:36:07.017Z,6.50
2019-01-15T16:39:13.167Z,6.40
2019-01-15T16:42:07.123Z,6.50
2019-01-15T16:45:00.996Z,6.50
2019-01-15T16:48:07.117Z,6.50
2019-01-15T16:50:55.609Z,6.50
2019-01-15T16:53:36.666Z,6.60
2019-01-15T16:56:23.820Z,6.50
2019-01-15T16:59:10.388Z,6.60
2019-01-15T17:02:14.005Z,6.60
2019-01-15T17:05:00.613Z,6.60
2019-01-15T17:07:52.261Z,6.60
2019-01-15T17:10:38.407Z,6.70
2019-01-15T17:13:41.781Z,6.60
2019-01-15T17:16:35.786Z,6.60
2019-01-15T17:19:22.536Z,6.50
2019-01-15T17:22:05.628Z,6.50
2019-01-15T17:24:54.573Z,6.50
2019-01-15T17:27:41.780Z,6.50
2019-01-15T17:30:47.608Z,6.50
2019-01-15T17:33:26.266Z,6.50
2019-01-15T17:36:14.691Z,6.50
2019-01-15T17:39:12.394Z,6.50
2019-01-15T17:42:03.412Z,6.40
2019-01-15T17:45:00.869Z,6.50
2019-01-15T17:48:04.628Z,6.50
2019-01-15T17:50:51.024Z,6.40
2019-01-15T17:53:51.913Z,6.40
2019-01-15T17:56:33.274Z,6.40
2019-01-15T17:59:24.950Z,6.40
2019-01-15T18:02:13.245Z,6.50
2019-01-15T18:05:07.620Z,6.40
2019-01-15T18:07:56.220Z,6.40
2019-01-15T18:10:43.278Z,6.40
2019-01-15T18:13:30.264Z,6.50
2019-01-15T18:16:17.282Z,6.40
2019-01-15T18:19:02.332Z,6.40
2019-01-15T18:21:49.447Z,6.40
2019-01-15T18:24:36.542Z,6.40
2019-01-15T18:27:40.492Z,6.40
2019-01-15T18:30:27.019Z,6.40
2019-01-15T18:33:13.891Z,6.30
2019-01-15T18:36:05.176Z,6.30
2019-01-15T18:39:04.008Z,6.30
2019-01-15T18:41:50.378Z,6.30
2019-01-15T18:44:38.669Z,6.30
2019-01-15T18:47:25.440Z,6.30
2019-01-15T18:50:17.251Z,6.20
2019-01-15T18:53:04.424Z,6.30
2019-01-15T18:55:45.416Z,6.20
2019-01-15T19:06:11.306Z,6.20
2019-01-15T19:09:17.038Z,6.30
2019-01-15T19:12:44.486Z,6.20
2019-01-15T19:26:13.478Z,6.20
2019-01-15T19:44:19.047Z,6.00
2019-01-15T19:47:18.238Z,6.00
2019-01-15T19:50:05.283Z,6.00
2019-01-15T19:53:26.143Z,5.90
2019-01-15T20:00:23.626Z,6.00
2019-01-15T20:14:37.251Z,6.00
2019-01-15T20:17:18.766Z,6.10
2019-01-15T20:27:51.650Z,6.10
2019-01-15T20:30:54.670Z,6.10
2019-01-15T20:33:51.720Z,6.20
2019-01-15T20:37:33.077Z,6.20
2019-01-15T20:39:47.006Z,6.20
2019-01-15T20:46:14.502Z,6.20
2019-01-15T20:49:21.960Z,6.30
2019-01-15T20:52:18.793Z,6.30
2019-01-15T20:55:23.421Z,6.20
2019-01-15T20:58:10.578Z,6.40
2019-01-15T21:04:46.532Z,6.30
2019-01-15T21:10:53.475Z,6.30
2019-01-15T21:13:45.854Z,6.20
2019-01-15T21:16:30.554Z,6.20
2019-01-15T21:19:34.853Z,6.30
2019-01-15T21:22:53.992Z,6.30
2019-01-15T21:25:48.532Z,6.30
2019-01-15T21:43:13.814Z,6.30
2019-01-15T21:45:57.312Z,6.20
2019-01-15T21:49:18.928Z,6.20
2019-01-15T21:52:25.563Z,6.30
2019-01-15T21:56:00.940Z,6.20
2019-01-15T21:59:17.797Z,6.20
2019-01-15T22:02:02.813Z,6.20
2019-01-15T22:05:03.013Z,6.20
2019-01-15T22:07:50.576Z,6.10
2019-01-15T22:10:35.364Z,6.20
2019-01-15T22:13:28.050Z,6.30
2019-01-15T22:16:05.953Z,6.30
2019-01-15T22:18:53.231Z,6.30
2019-01-15T22:21:40.093Z,6.30
2019-01-15T22:24:24.867Z,6.30
2019-01-15T22:38:14.282Z,6.30
2019-01-15T22:41:02.930Z,6.30
2019-01-15T22:44:07.138Z,6.30
2019-01-15T22:47:09.505Z,6.30
2019-01-15T22:49:58.867Z,6.20
2019-01-15T22:53:01.318Z,6.20
2019-01-15T22:56:17.056Z,6.10
2019-01-15T22:59:06.426Z,6.20
2019-01-15T23:02:02.863Z,6.30
2019-01-15T23:05:12.234Z,6.20
2019-01-15T23:08:29.549Z,6.20
2019-01-15T23:11:57.497Z,6.20
2019-01-15T23:15:14.310Z,6.10
2019-01-15T23:18:27.329Z,6.10
2019-01-15T23:25:04.424Z,6.10
2019-01-15T23:31:25.460Z,6.10
2019-01-15T23:34:13.304Z,6.00
2019-01-15T23:36:58.499Z,5.90
2019-01-15T23:39:54.422Z,6.00
2019-01-15T23:43:38.913Z,6.00
2019-01-15T23:46:50.668Z,6.10
2019-01-15T23:49:51.798Z,6.10
2019-01-15T23:53:02.392Z,6.10
2019-01-15T23:55:42.520Z,6.00
2019-01-15T23:58:44.010Z,6.10
